Time;durP1;ratioP1;P1;durP2;ratioP2;P2;SDS_P1;SDS_P2;PMS_P1;PMS_P2;Temp;Humidity;BMP_temperature;BMP_pressure;BME280_temperature;BME280_humidity;BME280_pressure;Samples;Min_cycle;Max_cycle;Signal;HPM_P1;HPM_P2
2023/10/13 00:01:34;;;;;;;3.97;2.30;;;20.20;99.90;;;;;;5014039;28;20474;-26
2023/10/13 00:04:01;;;;;;;3.30;2.17;;;20.10;99.90;;;;;;5024801;28;20423;-23
2023/10/13 00:06:27;;;;;;;3.13;2.05;;;20.10;99.90;;;;;;5028432;28;20204;-22
2023/10/13 00:08:55;;;;;;;3.40;2.50;;;20.10;99.90;;;;;;4999038;28;20083;-23
2023/10/13 00:11:21;;;;;;;3.83;2.27;;;20.10;99.90;;;;;;5017879;28;20056;-24
2023/10/13 00:13:50;;;;;;;3.67;2.33;;;20.10;99.90;;;;;;5018115;28;20140;-22
2023/10/13 00:16:22;;;;;;;3.75;2.25;;;20.10;99.90;;;;;;5028440;28;20029;-21
2023/10/13 00:18:54;;;;;;;3.55;2.28;;;20.10;99.90;;;;;;5027060;28;20410;-22
2023/10/13 00:21:20;;;;;;;3.50;2.33;;;20.00;99.90;;;;;;5026477;28;20366;-24
2023/10/13 00:23:55;;;;;;;4.63;2.30;;;20.00;99.90;;;;;;5005881;28;20102;-23
2023/10/13 00:26:28;;;;;;;3.78;2.38;;;20.00;99.90;;;;;;5018448;28;20218;-26
2023/10/13 00:29:01;;;;;;;4.00;2.55;;;20.00;99.90;;;;;;5005827;28;20052;-26
2023/10/13 00:31:36;;;;;;;5.45;2.50;;;20.00;99.90;;;;;;5026252;28;20697;-22
2023/10/13 00:34:12;;;;;;;4.10;2.30;;;20.00;99.90;;;;;;5024615;28;20036;-26
2023/10/13 00:36:48;;;;;;;5.78;2.60;;;18.50;99.90;;;;;;5030875;28;20465;-23
2023/10/13 00:39:17;;;;;;;3.95;2.67;;;20.00;99.90;;;;;;5001581;28;20029;-26
2023/10/13 00:41:56;;;;;;;4.25;2.38;;;20.00;99.90;;;;;;5018652;28;20460;-20
2023/10/13 00:44:37;;;;;;;4.13;2.35;;;20.00;99.90;;;;;;5016948;28;20257;-20
2023/10/13 00:47:07;;;;;;;4.20;2.70;;;20.00;99.90;;;;;;5027079;28;20518;-21
2023/10/13 00:49:39;;;;;;;4.30;2.65;;;20.00;99.90;;;;;;5020493;28;20033;-20
2023/10/13 00:52:06;;;;;;;4.35;2.85;;;20.00;99.90;;;;;;5028929;28;20032;-21
2023/10/13 00:54:35;;;;;;;4.22;2.60;;;20.00;99.90;;;;;;5008147;28;20241;-21
2023/10/13 00:57:07;;;;;;;4.63;2.92;;;20.00;99.90;;;;;;5014591;28;20140;-22
2023/10/13 00:59:36;;;;;;;3.97;2.23;;;20.00;99.90;;;;;;5021118;28;20017;-22
2023/10/13 01:02:37;;;;;;;3.70;2.40;;;20.00;99.90;;;;;;5027925;28;20403;-21
2023/10/13 01:04:48;;;;;;;5.72;2.97;;;20.00;99.90;;;;;;5019215;28;20088;-21
2023/10/13 01:07:17;;;;;;;4.47;2.47;;;20.00;99.90;;;;;;5026718;28;20018;-21
2023/10/13 01:09:43;;;;;;;5.57;3.15;;;20.00;99.90;;;;;;5001258;28;20133;-21
2023/10/13 01:12:09;;;;;;;4.33;2.80;;;20.00;99.90;;;;;;5019262;28;20009;-21
2023/10/13 01:14:35;;;;;;;4.10;2.90;;;20.00;99.90;;;;;;5019141;28;20043;-20
2023/10/13 01:17:04;;;;;;;6.80;2.90;;;20.00;99.90;;;;;;5027613;28;20040;-20
2023/10/13 01:19:30;;;;;;;4.60;2.70;;;20.00;99.90;;;;;;5019911;28;20026;-22
2023/10/13 01:22:03;;;;;;;4.00;2.78;;;20.00;99.90;;;;;;5030546;28;20037;-21
2023/10/13 01:24:34;;;;;;;4.22;2.83;;;20.00;99.90;;;;;;5021182;28;20193;-22
2023/10/13 01:27:25;;;;;;;4.77;2.80;;;20.00;99.90;;;;;;5004670;28;20040;-22
2023/10/13 01:29:58;;;;;;;4.18;2.72;;;20.00;99.90;;;;;;5013753;28;20328;-21
2023/10/13 01:32:24;;;;;;;4.80;2.92;;;20.00;99.90;;;;;;5024061;28;20153;-22
2023/10/13 01:34:55;;;;;;;5.53;3.10;;;20.10;99.90;;;;;;5020019;28;20158;-21
2023/10/13 01:37:21;;;;;;;5.30;3.00;;;20.10;99.90;;;;;;5028063;28;20044;-22
2023/10/13 01:39:49;;;;;;;5.90;3.27;;;20.10;99.90;;;;;;5042984;28;20245;-21
2023/10/13 01:42:19;;;;;;;5.45;3.28;;;20.10;99.90;;;;;;5020718;28;20479;-25
2023/10/13 01:44:45;;;;;;;5.97;4.00;;;20.00;99.90;;;;;;5006435;28;20270;-24
2023/10/13 01:47:12;;;;;;;6.70;3.70;;;20.10;99.90;;;;;;5029474;28;20426;-26
2023/10/13 01:49:49;;;;;;;5.57;3.63;;;20.10;99.90;;;;;;5018708;28;20260;-26
2023/10/13 01:52:16;;;;;;;6.10;3.63;;;20.10;99.90;;;;;;5022135;28;20326;-23
2023/10/13 01:54:45;;;;;;;7.15;4.03;;;20.10;99.90;;;;;;5025624;28;20412;-22
2023/10/13 01:57:17;;;;;;;6.95;4.18;;;20.10;99.90;;;;;;5003709;28;20029;-21
2023/10/13 01:59:49;;;;;;;6.15;3.80;;;20.10;99.90;;;;;;5009608;28;20248;-21
2023/10/13 02:02:28;;;;;;;6.88;4.03;;;20.10;99.90;;;;;;5033660;28;20053;-23
2023/10/13 02:05:00;;;;;;;7.30;4.20;;;20.10;99.90;;;;;;5021793;28;20048;-21
2023/10/13 02:07:29;;;;;;;6.93;4.35;;;20.10;99.90;;;;;;5016136;28;20369;-24
2023/10/13 02:09:56;;;;;;;7.30;4.55;;;20.10;99.90;;;;;;5014214;28;20037;-24
2023/10/13 02:12:42;;;;;;;7.93;4.38;;;20.10;99.90;;;;;;4998662;28;20447;-25
2023/10/13 02:15:12;;;;;;;8.05;5.00;;;20.10;99.90;;;;;;5017294;28;20522;-23
2023/10/13 02:17:41;;;;;;;7.43;4.70;;;20.20;99.90;;;;;;5010772;28;20056;-22
2023/10/13 02:20:10;;;;;;;7.80;4.82;;;20.10;99.90;;;;;;5014023;28;20472;-21
2023/10/13 02:22:38;;;;;;;6.20;4.35;;;20.20;99.90;;;;;;5015496;28;20356;-21
2023/10/13 02:25:06;;;;;;;8.38;4.88;;;20.20;99.90;;;;;;5027053;28;20829;-22
2023/10/13 02:27:40;;;;;;;8.00;4.93;;;20.20;99.90;;;;;;5019977;28;20052;-25
2023/10/13 02:30:13;;;;;;;8.17;4.93;;;20.20;99.90;;;;;;4995497;28;20083;-21
2023/10/13 02:32:43;;;;;;;7.93;4.68;;;20.20;99.90;;;;;;5014105;28;20517;-21
2023/10/13 02:35:15;;;;;;;7.38;4.30;;;20.20;99.90;;;;;;5026996;28;20104;-22
2023/10/13 02:37:44;;;;;;;7.43;4.85;;;20.20;99.90;;;;;;4997887;28;20111;-24
2023/10/13 02:40:11;;;;;;;8.68;4.70;;;20.20;99.90;;;;;;5027329;28;20060;-24
2023/10/13 02:42:38;;;;;;;7.23;4.67;;;20.20;99.90;;;;;;5028619;28;20673;-21
2023/10/13 02:45:05;;;;;;;7.97;4.95;;;20.20;99.90;;;;;;4992574;28;20699;-22
2023/10/13 02:47:31;;;;;;;9.18;4.82;;;20.20;99.90;;;;;;5014856;28;20026;-24
2023/10/13 02:50:00;;;;;;;8.95;4.20;;;20.20;99.90;;;;;;5017522;28;20045;-24
2023/10/13 02:52:27;;;;;;;8.40;4.60;;;20.20;99.90;;;;;;5004046;28;20037;-25
2023/10/13 02:54:53;;;;;;;6.57;4.40;;;20.10;99.90;;;;;;5026606;28;20699;-29
2023/10/13 02:57:18;;;;;;;7.63;4.20;;;20.20;99.90;;;;;;4999706;28;20108;-26
2023/10/13 02:59:48;;;;;;;6.47;3.90;;;20.10;99.90;;;;;;5000576;28;20065;-34
2023/10/13 03:02:25;;;;;;;7.93;4.30;;;20.10;99.90;;;;;;5014362;28;20513;-21
2023/10/13 03:04:59;;;;;;;8.05;4.05;;;20.10;99.90;;;;;;5023440;28;20556;-20
2023/10/13 03:07:28;;;;;;;6.05;3.95;;;20.10;99.90;;;;;;5013811;28;20442;-23
2023/10/13 03:09:57;;;;;;;6.95;4.00;;;20.10;99.90;;;;;;5024688;28;20021;-20
2023/10/13 03:12:24;;;;;;;6.53;3.75;;;20.10;99.90;;;;;;5027912;28;20071;-22
2023/10/13 03:17:34;;;;;;;6.47;3.80;;;20.20;99.90;;;;;;5003259;28;20245;-21
2023/10/13 03:20:00;;;;;;;6.45;4.10;;;20.10;99.90;;;;;;5026424;28;20176;-21
2023/10/13 03:22:32;;;;;;;6.57;3.40;;;20.10;99.90;;;;;;5021765;28;20029;-21
2023/10/13 03:25:09;;;;;;;5.55;3.28;;;20.10;99.90;;;;;;4997176;28;20368;-19
2023/10/13 03:30:21;;;;;;;4.97;3.35;;;20.10;99.90;;;;;;5000884;28;20029;-21
2023/10/13 03:32:54;;;;;;;5.37;3.13;;;20.10;99.90;;;;;;5012732;28;20293;-19
2023/10/13 03:35:37;;;;;;;6.90;3.47;;;20.10;99.90;;;;;;5016451;28;20036;-21
2023/10/13 03:38:03;;;;;;;6.03;3.58;;;20.10;99.90;;;;;;5005067;28;20033;-20
2023/10/13 03:43:09;;;;;;;5.20;2.85;;;20.00;99.90;;;;;;5024973;28;20033;-20
2023/10/13 03:45:39;;;;;;;6.20;3.13;;;20.10;99.90;;;;;;4999103;28;20501;-17
2023/10/13 03:51:15;;;;;;;5.63;3.08;;;19.20;99.90;;;;;;5016782;28;20042;-19
2023/10/13 03:53:54;;;;;;;5.95;2.65;;;20.10;99.90;;;;;;5014163;28;22777;-18
2023/10/13 03:56:27;;;;;;;6.22;3.25;;;20.10;99.90;;;;;;5026429;28;20105;-18
2023/10/13 03:59:04;;;;;;;6.87;3.43;;;20.10;99.90;;;;;;5011579;28;20025;-16
2023/10/13 04:01:43;;;;;;;5.43;3.03;;;20.10;99.90;;;;;;5002694;28;20261;-18
2023/10/13 04:04:11;;;;;;;5.55;3.30;;;20.10;99.90;;;;;;5020080;28;20032;-18
2023/10/13 04:17:23;;;;;;;4.22;2.85;;;20.10;99.90;;;;;;5004212;28;20418;-20
2023/10/13 04:30:59;;;;;;;7.40;3.30;;;20.20;99.90;;;;;;5025729;28;20279;-18
2023/10/13 04:33:35;;;;;;;4.80;2.78;;;20.20;99.90;;;;;;4986863;28;20491;-19
2023/10/13 04:36:16;;;;;;;3.83;2.60;;;20.20;99.90;;;;;;5021132;28;20040;-18
2023/10/13 04:39:00;;;;;;;5.27;2.70;;;20.20;99.90;;;;;;5016797;28;20533;-18
2023/10/13 04:42:26;;;;;;;5.60;2.70;;;20.20;99.90;;;;;;5010145;28;20095;-17
2023/10/13 05:05:21;;;;;;;5.95;2.70;;;20.10;99.90;;;;;;5026257;28;20029;-19
2023/10/13 05:51:57;;;;;;;3.92;2.15;;;20.00;99.90;;;;;;5012455;28;20640;-18
2023/10/13 06:28:40;;;;;;;5.30;2.00;;;20.00;99.90;;;;;;5020860;28;20059;-17
2023/10/13 06:30:14;;;;;;;5.53;2.53;;;20.00;99.90;;;;;;5014216;28;20033;-17
2023/10/13 06:32:40;;;;;;;4.22;2.10;;;20.00;99.90;;;;;;5029935;28;20324;-18
2023/10/13 06:35:18;;;;;;;4.97;2.23;;;20.90;99.90;;;;;;5009564;28;20036;-17
2023/10/13 06:37:45;;;;;;;3.08;2.03;;;20.00;99.90;;;;;;5035166;28;20040;-16
2023/10/13 06:43:11;;;;;;;3.13;1.90;;;20.00;99.90;;;;;;5021093;28;21270;-17
2023/10/13 06:45:38;;;;;;;2.67;1.85;;;20.10;99.90;;;;;;5013464;28;20658;-22
2023/10/13 06:48:05;;;;;;;3.20;2.00;;;20.10;99.90;;;;;;5031059;28;20028;-19
2023/10/13 06:50:39;;;;;;;4.03;2.08;;;20.10;99.90;;;;;;5004798;28;20788;-22
2023/10/13 06:53:05;;;;;;;5.38;2.63;;;20.10;99.90;;;;;;4996394;28;21248;-19
2023/10/13 06:55:39;;;;;;;5.30;2.50;;;20.10;99.90;;;;;;5020662;28;20033;-17
2023/10/13 06:58:13;;;;;;;6.13;2.53;;;20.20;99.90;;;;;;4997581;28;20517;-17
2023/10/13 07:00:40;;;;;;;4.95;2.78;;;20.20;99.90;;;;;;5035259;28;20037;-17
2023/10/13 07:03:08;;;;;;;6.40;2.67;;;20.20;99.90;;;;;;4981092;28;20135;-17
2023/10/13 07:05:43;;;;;;;6.30;2.50;;;20.20;99.90;;;;;;4997508;28;20033;-16
2023/10/13 07:08:14;;;;;;;6.73;2.77;;;20.20;99.90;;;;;;4961635;28;20029;-18
2023/10/13 07:11:08;;;;;;;5.60;2.60;;;20.20;99.90;;;;;;4995718;28;20432;-16
2023/10/13 07:13:39;;;;;;;7.78;3.25;;;20.30;99.90;;;;;;4988931;28;20030;-16
2023/10/13 07:16:12;;;;;;;4.40;2.58;;;20.30;99.90;;;;;;5001158;28;20026;-17
2023/10/13 07:18:49;;;;;;;6.90;2.70;;;20.30;99.90;;;;;;5013459;28;20026;-16
2023/10/13 07:21:16;;;;;;;7.80;3.37;;;20.40;99.90;;;;;;4994895;28;20371;-17
2023/10/13 07:23:49;;;;;;;5.93;2.95;;;20.40;99.90;;;;;;4976588;28;20033;-16
2023/10/13 07:26:15;;;;;;;5.63;3.03;;;20.40;99.90;;;;;;4994916;28;20025;-16
2023/10/13 07:28:43;;;;;;;6.17;3.60;;;20.50;99.90;;;;;;4987991;28;20298;-16
2023/10/13 07:31:14;;;;;;;9.97;3.17;;;20.60;99.90;;;;;;5000029;28;20323;-16
2023/10/13 07:33:41;;;;;;;7.70;3.40;;;20.60;99.90;;;;;;4992112;28;20550;-16
2023/10/13 07:36:15;;;;;;;8.57;3.38;;;20.70;99.90;;;;;;5001414;28;20497;-16
2023/10/13 07:38:59;;;;;;;4.10;3.00;;;20.70;99.90;;;;;;4973411;28;20025;-15
2023/10/13 07:41:30;;;;;;;6.50;3.40;;;20.80;99.90;;;;;;4997299;28;20036;-17
2023/10/13 07:43:59;;;;;;;6.27;2.90;;;20.80;99.90;;;;;;4989690;28;20022;-19
2023/10/13 07:46:31;;;;;;;6.43;3.47;;;20.80;99.90;;;;;;4989301;28;20037;-18
2023/10/13 07:49:08;;;;;;;6.80;3.63;;;20.80;99.90;;;;;;4996699;28;20034;-19
2023/10/13 07:51:44;;;;;;;6.40;3.55;;;20.90;99.90;;;;;;4984479;28;20032;-18
2023/10/13 07:54:22;;;;;;;7.63;3.83;;;20.90;99.90;;;;;;4999607;28;20026;-20
2023/10/13 07:56:49;;;;;;;6.67;3.50;;;20.90;99.90;;;;;;4991023;28;20277;-21
2023/10/13 07:59:22;;;;;;;7.88;3.53;;;21.00;99.90;;;;;;4997681;28;20384;-22
2023/10/13 08:02:06;;;;;;;6.53;3.50;;;21.10;99.90;;;;;;5011300;28;20498;-20
2023/10/13 08:04:35;;;;;;;7.60;3.40;;;21.10;99.90;;;;;;5030570;28;20033;-17
2023/10/13 08:07:12;;;;;;;7.03;3.30;;;21.10;99.90;;;;;;5006360;28;20030;-18
2023/10/13 08:09:40;;;;;;;7.40;3.50;;;21.20;99.90;;;;;;5004500;28;20040;-16
2023/10/13 08:12:11;;;;;;;5.22;3.20;;;21.30;99.90;;;;;;5012804;28;20033;-16
2023/10/13 08:14:38;;;;;;;6.53;3.60;;;21.40;99.90;;;;;;5012113;28;20032;-16
2023/10/13 08:17:12;;;;;;;8.73;3.72;;;21.50;99.90;;;;;;5023440;28;20029;-16
2023/10/13 08:19:44;;;;;;;6.15;3.42;;;21.50;99.90;;;;;;5014613;28;20021;-16
2023/10/13 08:30:26;;;;;;;7.38;3.75;;;21.80;99.90;;;;;;5012765;28;20619;-16
2023/10/13 08:33:17;;;;;;;6.18;3.72;;;21.90;99.90;;;;;;5024046;28;20445;-16
2023/10/13 08:35:54;;;;;;;6.17;3.40;;;21.90;99.90;;;;;;5009904;28;20395;-16
2023/10/13 08:38:17;;;;;;;6.97;3.50;;;21.90;99.90;;;;;;5024060;28;20033;-16
2023/10/13 08:43:43;;;;;;;7.00;3.40;;;22.00;99.90;;;;;;5015045;28;20095;-16
2023/10/13 08:46:09;;;;;;;7.03;3.10;;;22.00;99.90;;;;;;5026737;28;20032;-17
2023/10/13 08:48:36;;;;;;;8.17;3.83;;;22.00;99.90;;;;;;5029021;28;20045;-17
2023/10/13 08:51:10;;;;;;;7.30;3.80;;;22.00;99.90;;;;;;4993460;28;20033;-17
2023/10/13 08:53:58;;;;;;;7.07;3.28;;;22.10;99.90;;;;;;5024908;28;20454;-17
2023/10/13 08:56:46;;;;;;;6.32;3.40;;;22.10;99.90;;;;;;5003411;28;20283;-16
2023/10/13 08:59:22;;;;;;;6.20;3.20;;;22.10;99.90;;;;;;5010251;28;20079;-16
2023/10/13 09:01:59;;;;;;;7.43;3.25;;;22.20;99.90;;;;;;5025883;28;20195;-16
2023/10/13 09:04:35;;;;;;;6.18;3.00;;;22.20;99.90;;;;;;5012615;28;20157;-16
2023/10/13 09:07:25;;;;;;;6.78;3.40;;;22.20;99.90;;;;;;5000473;28;20021;-16
2023/10/13 09:17:55;;;;;;;7.45;3.40;;;22.40;99.90;;;;;;5027896;28;20120;-16
2023/10/13 09:20:35;;;;;;;4.72;3.13;;;22.50;99.90;;;;;;5016450;28;20686;-16
2023/10/13 09:23:09;;;;;;;8.00;3.80;;;22.50;99.90;;;;;;5028750;28;20036;-16
2023/10/13 09:25:37;;;;;;;8.20;3.83;;;22.60;99.90;;;;;;5029007;28;20035;-16
2023/10/13 09:28:10;;;;;;;9.45;3.60;;;22.70;99.90;;;;;;4994734;28;20052;-16
2023/10/13 09:30:49;;;;;;;6.63;3.85;;;22.80;99.90;;;;;;5012854;28;20038;-16
2023/10/13 09:33:36;;;;;;;6.72;3.85;;;22.90;99.90;;;;;;5028039;28;20266;-16
2023/10/13 09:36:13;;;;;;;8.23;3.97;;;23.00;99.90;;;;;;5018453;28;20051;-16
2023/10/13 09:38:48;;;;;;;7.53;3.80;;;23.00;99.90;;;;;;5028657;28;20029;-16
2023/10/13 09:41:25;;;;;;;6.55;3.40;;;23.00;99.90;;;;;;5029959;28;20111;-16
2023/10/13 09:43:52;;;;;;;6.80;3.28;;;23.00;99.90;;;;;;5000548;28;20094;-16
2023/10/13 09:46:23;;;;;;;7.53;3.88;;;23.10;99.90;;;;;;5005332;28;20056;-15
2023/10/13 09:49:04;;;;;;;8.15;3.65;;;23.00;99.90;;;;;;5032118;28;20398;-16
2023/10/13 09:51:31;;;;;;;7.80;3.47;;;23.00;99.90;;;;;;5012842;28;20029;-16
2023/10/13 09:54:11;;;;;;;7.03;3.80;;;23.00;99.90;;;;;;5017706;28;20120;-16
2023/10/13 09:56:51;;;;;;;7.93;3.55;;;23.00;99.90;;;;;;5029464;28;20070;-16
2023/10/13 09:59:52;;;;;;;7.15;3.53;;;23.00;99.90;;;;;;5003122;28;20099;-16
2023/10/13 10:02:25;;;;;;;6.18;3.50;;;23.10;99.90;;;;;;5011771;28;20289;-15
2023/10/13 10:05:11;;;;;;;8.97;3.23;;;23.00;99.90;;;;;;5007545;28;20572;-16
2023/10/13 10:07:39;;;;;;;5.72;3.15;;;23.00;99.90;;;;;;5015248;28;20546;-16
2023/10/13 10:10:08;;;;;;;7.72;3.40;;;23.00;99.90;;;;;;4990478;28;20133;-16
2023/10/13 10:12:41;;;;;;;9.48;3.90;;;23.00;99.90;;;;;;5032460;28;20044;-16
2023/10/13 10:15:43;;;;;;;8.07;3.80;;;23.00;99.90;;;;;;4992788;28;20148;-16
2023/10/13 10:18:23;;;;;;;5.57;3.30;;;23.00;99.90;;;;;;5015905;28;20067;-16
2023/10/13 10:20:52;;;;;;;6.72;3.30;;;23.00;99.90;;;;;;5032717;28;20043;-16
2023/10/13 10:23:27;;;;;;;6.78;3.67;;;23.10;99.90;;;;;;5021233;28;20701;-16
2023/10/13 10:26:04;;;;;;;6.07;3.40;;;23.00;99.90;;;;;;5022677;28;20033;-16
2023/10/13 10:28:37;;;;;;;7.40;3.47;;;23.10;99.90;;;;;;5029223;28;20017;-16
2023/10/13 10:31:14;;;;;;;6.83;3.43;;;23.10;99.90;;;;;;5007888;28;20017;-16
2023/10/13 10:33:41;;;;;;;6.20;3.25;;;23.10;99.90;;;;;;4992917;28;20037;-16
2023/10/13 10:36:12;;;;;;;6.22;3.22;;;23.20;99.90;;;;;;5015770;28;20135;-17
2023/10/13 10:38:52;;;;;;;8.70;3.50;;;23.20;99.90;;;;;;5014609;28;20516;-17
2023/10/13 10:41:29;;;;;;;6.38;3.58;;;23.20;99.90;;;;;;5018472;28;20740;-18
2023/10/13 10:43:55;;;;;;;6.77;2.93;;;23.20;99.90;;;;;;5026425;28;20249;-18
2023/10/13 10:46:28;;;;;;;8.45;3.97;;;23.30;99.90;;;;;;5002470;28;20029;-18
2023/10/13 10:49:00;;;;;;;8.43;4.00;;;23.40;99.90;;;;;;5006693;28;20666;-17
2023/10/13 10:51:31;;;;;;;8.30;3.50;;;23.40;99.90;;;;;;5026223;28;20020;-18
2023/10/13 10:53:58;;;;;;;6.33;3.33;;;23.40;99.90;;;;;;5015658;28;20032;-17
2023/10/13 10:58:55;;;;;;;8.35;4.05;;;23.60;99.90;;;;;;5023350;28;20097;-17
2023/10/13 11:01:46;;;;;;;8.40;3.58;;;23.70;99.90;;;;;;5000250;28;20053;-17
2023/10/13 11:06:54;;;;;;;8.77;3.77;;;23.90;99.90;;;;;;5023497;28;20116;-17
2023/10/13 11:14:50;;;;;;;7.10;3.58;;;24.10;99.90;;;;;;5022896;28;20029;-16
2023/10/13 11:17:26;;;;;;;7.05;3.72;;;24.20;99.90;;;;;;5003000;28;20033;-16
2023/10/13 11:19:52;;;;;;;6.10;3.60;;;24.20;99.90;;;;;;5003694;28;20045;-16
2023/10/13 11:25:09;;;;;;;8.25;3.90;;;24.30;99.90;;;;;;5013629;28;20542;-16
2023/10/13 11:30:25;;;;;;;8.65;3.60;;;24.50;99.90;;;;;;5026570;28;20724;-16
2023/10/13 11:33:05;;;;;;;6.83;3.70;;;24.50;99.90;;;;;;4991958;28;20087;-16
2023/10/13 11:38:27;;;;;;;7.13;3.63;;;24.60;99.90;;;;;;5026049;28;20171;-16
2023/10/13 11:41:14;;;;;;;9.52;4.25;;;24.70;99.90;;;;;;4997457;28;20033;-16
2023/10/13 11:47:16;;;;;;;6.67;3.60;;;24.70;99.90;;;;;;5022460;28;20462;-16
2023/10/13 11:51:46;;;;;;;8.00;4.30;;;24.80;99.90;;;;;;5015732;28;20017;-16
2023/10/13 11:54:19;;;;;;;9.45;4.10;;;24.90;99.90;;;;;;5021835;28;20083;-16
2023/10/13 11:56:46;;;;;;;7.57;3.83;;;25.00;99.90;;;;;;5013235;28;20056;-17
2023/10/13 11:59:18;;;;;;;8.67;3.90;;;25.00;99.90;;;;;;5023973;28;20580;-17
2023/10/13 12:04:32;;;;;;;7.85;3.70;;;25.20;99.90;;;;;;5011130;28;20033;-19
2023/10/13 12:10:03;;;;;;;10.15;4.28;;;25.40;99.90;;;;;;5021340;28;20056;-17
2023/10/13 12:12:40;;;;;;;8.73;4.17;;;25.40;99.90;;;;;;5023036;28;20480;-18
2023/10/13 12:15:09;;;;;;;9.13;3.90;;;25.50;99.90;;;;;;5017245;28;20624;-17
2023/10/13 12:17:36;;;;;;;8.73;3.78;;;25.50;99.90;;;;;;5017762;28;20160;-17
2023/10/13 12:20:09;;;;;;;6.20;3.58;;;25.60;99.90;;;;;;5004542;28;20107;-17
2023/10/13 12:22:39;;;;;;;6.85;3.40;;;25.50;99.90;;;;;;4998235;28;20112;-17
2023/10/13 12:28:12;;;;;;;7.20;3.35;;;25.50;99.90;;;;;;5005336;28;20669;-16
2023/10/13 12:30:54;;;;;;;7.75;3.63;;;25.50;99.90;;;;;;5037005;28;20077;-16
2023/10/13 12:33:28;;;;;;;6.03;2.95;;;25.50;99.90;;;;;;5028821;28;20021;-16
2023/10/13 12:36:41;;;;;;;6.43;3.42;;;25.50;99.90;;;;;;4984203;28;20025;-16
2023/10/13 12:52:16;;;;;;;6.00;3.17;;;25.20;99.90;;;;;;4996307;28;20517;-15
2023/10/13 12:57:27;;;;;;;6.57;3.00;;;25.20;99.90;;;;;;5026604;28;20481;-16
2023/10/13 12:59:53;;;;;;;7.15;3.47;;;25.10;99.90;;;;;;5030642;28;20052;-16
2023/10/13 13:02:26;;;;;;;6.95;3.33;;;25.10;99.90;;;;;;5028153;28;20053;-16
2023/10/13 13:05:11;;;;;;;7.37;3.37;;;25.20;99.90;;;;;;5024378;28;20324;-16
2023/10/13 13:07:52;;;;;;;5.63;3.25;;;25.20;99.90;;;;;;4982305;28;20109;-17
2023/10/13 13:10:18;;;;;;;8.30;3.92;;;25.20;99.90;;;;;;5026357;28;20021;-19
2023/10/13 13:12:44;;;;;;;8.85;3.83;;;25.20;99.90;;;;;;5029718;28;20371;-17
2023/10/13 13:15:11;;;;;;;5.43;3.63;;;25.20;99.90;;;;;;5000419;28;20378;-16
2023/10/13 13:17:38;;;;;;;6.80;3.20;;;25.30;99.90;;;;;;5026821;28;20438;-16
2023/10/13 13:20:28;;;;;;;7.03;3.10;;;25.30;99.90;;;;;;5029810;28;20045;-16
2023/10/13 13:22:55;;;;;;;5.32;3.30;;;25.30;99.90;;;;;;4987157;28;20095;-16
2023/10/13 13:25:26;;;;;;;5.37;3.20;;;25.40;99.90;;;;;;5042453;28;20550;-16
2023/10/13 13:27:52;;;;;;;6.05;3.20;;;25.40;99.90;;;;;;5026133;28;20033;-16
2023/10/13 13:30:20;;;;;;;9.48;3.53;;;25.40;99.90;;;;;;5017521;28;20241;-16
2023/10/13 13:32:47;;;;;;;8.23;4.03;;;25.40;99.90;;;;;;5028827;28;20096;-16
2023/10/13 13:35:15;;;;;;;6.50;3.00;;;25.40;99.90;;;;;;5020262;28;20084;-16
2023/10/13 13:37:44;;;;;;;6.70;3.13;;;25.40;99.90;;;;;;5000655;28;20379;-18
2023/10/13 13:40:18;;;;;;;7.97;3.50;;;25.40;99.90;;;;;;5029443;28;20647;-17
2023/10/13 13:42:44;;;;;;;7.90;3.22;;;25.50;99.90;;;;;;5028233;28;20013;-17
2023/10/13 13:45:21;;;;;;;7.82;3.60;;;25.50;99.90;;;;;;4990948;28;20124;-18
2023/10/13 13:47:53;;;;;;;7.38;3.63;;;25.50;99.90;;;;;;5014601;28;20454;-17
2023/10/13 13:50:24;;;;;;;7.43;3.43;;;25.60;99.90;;;;;;5016410;28;20780;-17
2023/10/13 13:52:52;;;;;;;8.35;3.58;;;25.70;99.90;;;;;;5021821;28;20104;-16
2023/10/13 13:55:19;;;;;;;5.07;3.38;;;25.70;99.90;;;;;;5011579;28;20260;-17
2023/10/13 13:57:45;;;;;;;7.57;3.90;;;25.80;99.90;;;;;;5030335;28;20525;-18
2023/10/13 14:00:17;;;;;;;6.25;3.45;;;25.90;99.90;;;;;;5016032;28;20076;-18
2023/10/13 14:02:47;;;;;;;6.50;3.23;;;26.00;99.90;;;;;;5026174;28;20033;-17
2023/10/13 14:05:16;;;;;;;5.85;3.15;;;26.00;99.90;;;;;;5023553;28;20333;-17
2023/10/13 14:07:48;;;;;;;5.07;2.88;;;26.10;99.90;;;;;;4986541;28;20064;-17
2023/10/13 14:10:31;;;;;;;5.35;3.20;;;26.10;99.90;;;;;;5003274;28;20745;-17
2023/10/13 14:13:06;;;;;;;5.45;3.00;;;26.10;99.90;;;;;;5041372;28;20028;-17
2023/10/13 14:15:39;;;;;;;6.00;3.20;;;26.10;99.90;;;;;;5014817;28;20036;-17
2023/10/13 14:18:07;;;;;;;8.27;3.25;;;26.10;99.90;;;;;;5029202;28;20091;-17
2023/10/13 14:20:39;;;;;;;6.13;3.40;;;26.00;99.90;;;;;;5026660;28;20033;-19
2023/10/13 14:23:07;;;;;;;5.78;3.10;;;25.90;99.90;;;;;;5002899;28;20331;-17
2023/10/13 14:25:37;;;;;;;5.43;2.90;;;26.30;99.90;;;;;;5006967;28;20475;-16
2023/10/13 14:28:05;;;;;;;4.70;3.20;;;25.90;99.90;;;;;;5016149;28;20021;-16
2023/10/13 14:30:31;;;;;;;6.40;3.70;;;25.80;99.90;;;;;;5002330;28;20249;-16
2023/10/13 14:33:01;;;;;;;5.07;3.10;;;25.80;99.90;;;;;;5023789;28;20048;-16
2023/10/13 14:35:26;;;;;;;4.50;3.00;;;25.70;99.90;;;;;;5022027;28;20025;-16
2023/10/13 14:37:53;;;;;;;6.13;3.10;;;25.70;99.90;;;;;;5006858;28;21108;-16
2023/10/13 14:40:21;;;;;;;6.27;3.20;;;25.60;99.70;;;;;;4997676;28;20882;-16
2023/10/13 14:42:47;;;;;;;5.95;3.20;;;25.60;99.70;;;;;;5011847;28;20056;-16
2023/10/13 14:45:16;;;;;;;4.80;3.30;;;25.50;99.80;;;;;;5014184;28;20091;-16
2023/10/13 14:47:45;;;;;;;5.95;2.97;;;25.40;99.60;;;;;;5015052;28;20056;-16
2023/10/13 14:50:21;;;;;;;5.25;3.10;;;25.40;99.70;;;;;;5021001;28;20421;-16
2023/10/13 14:52:48;;;;;;;6.43;3.27;;;25.30;99.70;;;;;;5017213;28;20383;-16
2023/10/13 14:55:21;;;;;;;6.10;3.33;;;25.30;99.60;;;;;;5001314;28;20032;-16
2023/10/13 14:57:50;;;;;;;4.75;2.80;;;25.20;99.30;;;;;;5007509;28;20111;-16
2023/10/13 15:00:24;;;;;;;4.93;2.75;;;25.10;98.50;;;;;;5013274;28;20056;-16
2023/10/13 15:02:54;;;;;;;6.90;3.30;;;25.10;99.10;;;;;;5009637;28;20053;-16
2023/10/13 15:05:20;;;;;;;6.53;3.27;;;25.00;98.40;;;;;;5009912;28;20017;-16
2023/10/13 15:07:45;;;;;;;5.15;3.00;;;24.90;99.20;;;;;;4999544;28;20044;-16
2023/10/13 15:10:14;;;;;;;9.13;3.47;;;24.80;99.10;;;;;;5028830;28;20049;-16
2023/10/13 15:12:46;;;;;;;5.85;3.05;;;24.80;98.60;;;;;;4996486;28;20071;-16
2023/10/13 15:15:19;;;;;;;6.47;3.00;;;24.70;99.30;;;;;;5016455;28;20028;-16
2023/10/13 15:17:45;;;;;;;6.45;3.30;;;24.60;98.90;;;;;;5004751;28;20025;-16
2023/10/13 15:20:15;;;;;;;6.07;3.13;;;24.60;98.90;;;;;;5009580;28;20048;-16
2023/10/13 15:22:47;;;;;;;7.17;3.10;;;24.50;99.00;;;;;;5009493;28;20025;-16
2023/10/13 15:25:28;;;;;;;6.35;3.25;;;24.50;99.30;;;;;;5027854;28;20025;-16
2023/10/13 15:28:05;;;;;;;8.23;3.00;;;24.40;99.70;;;;;;4998262;28;20044;-16
2023/10/13 15:30:56;;;;;;;5.30;3.20;;;24.30;99.40;;;;;;5021954;28;20024;-16
2023/10/13 15:33:23;;;;;;;6.50;3.10;;;24.30;99.70;;;;;;5015626;28;20150;-16
2023/10/13 15:35:49;;;;;;;6.77;2.90;;;24.30;99.90;;;;;;5010436;28;20543;-16
2023/10/13 15:38:14;;;;;;;5.45;2.95;;;24.20;99.90;;;;;;5011830;28;20024;-16
2023/10/13 15:40:44;;;;;;;5.67;3.57;;;24.20;99.90;;;;;;5021624;28;20425;-16
2023/10/13 15:43:10;;;;;;;5.35;3.13;;;24.20;99.90;;;;;;5003695;28;20057;-15
2023/10/13 15:45:39;;;;;;;5.25;3.20;;;24.20;99.90;;;;;;5021627;28;20091;-17
2023/10/13 15:48:06;;;;;;;6.05;3.72;;;24.20;99.90;;;;;;5016515;28;20045;-17
2023/10/13 15:50:39;;;;;;;6.47;3.58;;;24.20;99.90;;;;;;5016398;28;20052;-17
2023/10/13 15:53:12;;;;;;;8.77;3.60;;;24.20;99.30;;;;;;5015903;28;20390;-17
2023/10/13 15:55:38;;;;;;;5.35;3.20;;;24.10;99.90;;;;;;5021556;28;20025;-17
2023/10/13 15:58:09;;;;;;;5.57;3.50;;;24.10;99.90;;;;;;4985130;28;20065;-16
2023/10/13 16:00:38;;;;;;;6.45;3.28;;;24.10;99.50;;;;;;5021727;28;20464;-16
2023/10/13 16:03:11;;;;;;;5.57;3.15;;;24.20;99.40;;;;;;4997576;28;20061;-16
2023/10/13 16:05:39;;;;;;;5.33;3.13;;;24.10;99.90;;;;;;5003351;28;20420;-16
2023/10/13 16:08:10;;;;;;;5.18;2.97;;;24.10;99.90;;;;;;5021363;28;20079;-16
2023/10/13 16:10:36;;;;;;;6.57;3.10;;;24.10;99.90;;;;;;4994960;28;20291;-16
2023/10/13 16:13:05;;;;;;;5.53;3.47;;;24.10;99.90;;;;;;5000819;28;20021;-16
2023/10/13 16:15:30;;;;;;;5.18;3.20;;;24.10;99.90;;;;;;5027001;28;20063;-16
2023/10/13 16:17:56;;;;;;;4.23;2.93;;;24.00;99.90;;;;;;5016229;28;20552;-16
2023/10/13 16:20:24;;;;;;;7.63;3.20;;;24.00;99.50;;;;;;4971609;28;20409;-14
2023/10/13 16:22:50;;;;;;;5.50;2.87;;;24.00;98.70;;;;;;5010116;28;21253;-14
2023/10/13 16:25:16;;;;;;;6.07;2.70;;;23.80;98.30;;;;;;5008670;28;20436;-14
2023/10/13 16:27:43;;;;;;;3.95;2.50;;;23.60;98.10;;;;;;5034681;28;20465;-13
2023/10/13 16:30:10;;;;;;;5.28;2.63;;;23.50;98.20;;;;;;5000264;28;20471;-14
2023/10/13 16:32:36;;;;;;;4.60;2.83;;;23.30;98.40;;;;;;5020503;28;20017;-14
2023/10/13 16:35:06;;;;;;;4.55;2.60;;;23.10;98.70;;;;;;5005730;28;20036;-14